createdAt,value
2023-04-21T00:02:23.638Z,5.05
2023-04-21T00:07:48.048Z,5.15
2023-04-21T00:13:15.055Z,6.07
2023-04-21T00:18:38.655Z,6.50
2023-04-21T00:24:02.633Z,5.13
2023-04-21T00:29:27.815Z,5.45
2023-04-21T00:34:51.519Z,4.60
2023-04-21T00:40:15.850Z,4.28
2023-04-21T00:45:41.047Z,3.85
2023-04-21T00:51:06.179Z,3.90
2023-04-21T00:56:32.477Z,5.63
2023-04-21T01:01:58.306Z,7.30
2023-04-21T01:07:21.542Z,9.00
2023-04-21T01:12:46.282Z,10.63
2023-04-21T01:18:10.857Z,10.68
2023-04-21T01:23:35.137Z,7.55
2023-04-21T01:28:58.098Z,7.10
2023-04-21T01:34:21.250Z,6.40
2023-04-21T01:39:46.647Z,5.70
2023-04-21T01:45:09.545Z,4.95
2023-04-21T01:50:32.528Z,4.50
2023-04-21T01:55:56.418Z,6.10
2023-04-21T02:01:18.484Z,4.13
2023-04-21T02:06:40.701Z,5.53
2023-04-21T02:12:04.860Z,6.45
2023-04-21T02:17:26.817Z,7.32
2023-04-21T02:22:52.076Z,10.60
2023-04-21T02:28:15.489Z,13.90
2023-04-21T02:33:38.241Z,13.65
2023-04-21T02:39:00.584Z,7.20
2023-04-21T02:44:23.903Z,5.90
2023-04-21T02:49:46.298Z,4.97
2023-04-21T02:55:10.090Z,5.07
2023-04-21T03:00:34.260Z,5.50
2023-04-21T03:05:59.376Z,5.00
2023-04-21T03:11:21.780Z,5.88
2023-04-21T03:16:45.641Z,6.13
2023-04-21T03:22:08.073Z,5.57
2023-04-21T03:27:30.557Z,8.27
2023-04-21T03:32:55.774Z,9.50
2023-04-21T03:38:18.655Z,12.05
2023-04-21T03:43:41.950Z,9.10
2023-04-21T03:49:06.161Z,9.32
2023-04-21T03:54:28.860Z,8.25
2023-04-21T03:59:53.289Z,7.13
2023-04-21T04:05:17.662Z,8.02
2023-04-21T04:10:40.758Z,5.47
2023-04-21T04:16:04.226Z,4.35
2023-04-21T04:21:29.797Z,3.50
2023-04-21T04:26:53.710Z,3.33
2023-04-21T04:32:17.656Z,3.25
2023-04-21T04:37:42.370Z,4.15
2023-04-21T04:43:05.422Z,4.20
2023-04-21T04:48:28.492Z,4.65
2023-04-21T04:53:53.556Z,4.30
2023-04-21T04:59:18.535Z,4.35
2023-04-21T05:04:43.721Z,4.28
2023-04-21T05:10:09.828Z,5.88
2023-04-21T05:15:33.546Z,6.32
2023-04-21T05:20:58.269Z,7.38
2023-04-21T05:26:23.974Z,7.60
2023-04-21T05:31:48.261Z,7.03
2023-04-21T05:37:13.242Z,7.13
2023-04-21T05:42:38.744Z,6.32
2023-04-21T05:48:03.603Z,7.32
2023-04-21T05:53:28.968Z,7.70
2023-04-21T05:58:54.581Z,6.35
2023-04-21T06:04:18.959Z,7.28
2023-04-21T06:09:43.765Z,7.65
2023-04-21T06:15:10.570Z,8.68
2023-04-21T06:20:35.051Z,7.75
2023-04-21T06:26:04.920Z,8.40
2023-04-21T06:31:30.994Z,8.82
2023-04-21T06:36:54.464Z,13.50
2023-04-21T06:42:18.238Z,13.02
2023-04-21T06:47:43.733Z,8.70
2023-04-21T06:53:08.176Z,9.68
2023-04-21T06:58:32.882Z,11.25
2023-04-21T07:03:58.894Z,13.68
2023-04-21T07:09:24.803Z,9.55
2023-04-21T07:14:48.986Z,9.50
2023-04-21T07:20:14.622Z,8.98
2023-04-21T07:25:38.526Z,7.65
2023-04-21T07:31:03.902Z,10.93
2023-04-21T07:36:31.115Z,7.53
2023-04-21T07:41:56.910Z,8.70
2023-04-21T07:47:20.932Z,9.85
2023-04-21T07:52:48.572Z,5.82
2023-04-21T07:58:13.964Z,6.25
2023-04-21T08:03:38.851Z,8.02
2023-04-21T08:09:05.048Z,8.57
2023-04-21T08:14:29.401Z,10.45
2023-04-21T08:19:53.767Z,12.10
2023-04-21T08:25:22.676Z,10.52
2023-04-21T08:30:46.923Z,11.60
2023-04-21T08:36:26.030Z,11.75
2023-04-21T08:42:00.368Z,9.27
2023-04-21T08:47:26.111Z,11.65
2023-04-21T08:52:50.019Z,12.55
2023-04-21T08:58:15.493Z,8.15
2023-04-21T09:03:41.088Z,9.63
2023-04-21T09:09:06.469Z,8.75
2023-04-21T09:14:32.428Z,9.82
2023-04-21T09:19:56.228Z,8.40
2023-04-21T09:25:21.332Z,8.27
2023-04-21T09:30:46.747Z,6.68
2023-04-21T09:36:18.869Z,4.80
2023-04-21T09:41:42.879Z,4.00
2023-04-21T09:47:11.167Z,8.55
2023-04-21T09:52:34.771Z,6.03
2023-04-21T09:57:59.664Z,5.25
2023-04-21T10:03:28.428Z,5.32
2023-04-21T10:08:53.733Z,5.70
2023-04-21T10:14:18.019Z,6.40
2023-04-21T10:19:53.795Z,5.05
2023-04-21T10:25:20.959Z,7.35
2023-04-21T10:30:46.675Z,5.80
2023-04-21T10:36:15.918Z,5.03
2023-04-21T10:41:40.060Z,4.28
2023-04-21T10:47:08.810Z,8.13
2023-04-21T10:52:35.891Z,3.38
2023-04-21T10:58:02.762Z,3.53
2023-04-21T11:03:35.164Z,4.43
2023-04-21T11:09:00.804Z,3.55
2023-04-21T11:14:26.865Z,3.92
2023-04-21T11:19:53.882Z,3.53
2023-04-21T11:25:19.555Z,3.95
2023-04-21T11:30:43.941Z,3.33
2023-04-21T11:36:08.391Z,3.67
2023-04-21T11:41:33.396Z,3.22
2023-04-21T11:46:58.703Z,3.72
2023-04-21T11:52:26.737Z,3.28
2023-04-21T11:57:52.382Z,4.32
2023-04-21T12:03:16.696Z,2.25
2023-04-21T12:08:41.359Z,3.28
2023-04-21T12:14:06.573Z,5.53
2023-04-21T12:19:36.472Z,6.18
2023-04-21T12:25:00.632Z,7.68
2023-04-21T12:30:26.628Z,6.10
2023-04-21T12:35:52.932Z,7.38
2023-04-21T12:41:16.461Z,4.45
2023-04-21T12:46:42.055Z,3.58
2023-04-21T12:52:06.561Z,2.90
2023-04-21T12:57:31.886Z,2.25
2023-04-21T13:02:57.265Z,2.78
2023-04-21T13:08:22.188Z,3.05
2023-04-21T13:13:47.428Z,3.10
2023-04-21T13:19:15.020Z,3.30
2023-04-21T13:24:38.695Z,3.15
2023-04-21T13:30:04.889Z,4.57
2023-04-21T13:35:30.530Z,3.70
2023-04-21T13:40:54.620Z,3.58
2023-04-21T13:46:18.820Z,2.45
2023-04-21T13:51:43.978Z,3.30
2023-04-21T13:57:08.983Z,4.28
2023-04-21T14:02:33.580Z,3.63
2023-04-21T14:08:00.799Z,3.85
2023-04-21T14:13:34.877Z,2.38
2023-04-21T14:19:02.349Z,2.78
2023-04-21T14:24:30.032Z,2.40
2023-04-21T14:29:54.089Z,2.10
2023-04-21T14:35:21.303Z,2.38
2023-04-21T14:40:49.753Z,2.50
2023-04-21T14:46:18.202Z,2.20
2023-04-21T14:51:49.564Z,2.63
2023-04-21T14:57:19.702Z,2.20
2023-04-21T15:02:46.292Z,2.67
2023-04-21T15:08:11.898Z,2.70
2023-04-21T15:13:41.228Z,3.57
2023-04-21T15:19:10.102Z,3.40
2023-04-21T15:24:38.096Z,3.78
2023-04-21T15:30:08.260Z,2.88
2023-04-21T15:35:34.283Z,3.03
2023-04-21T15:41:00.587Z,2.60
2023-04-21T15:46:31.558Z,3.63
2023-04-21T15:52:00.563Z,4.35
2023-04-21T15:57:29.753Z,3.67
2023-04-21T16:02:59.743Z,2.78
2023-04-21T16:08:28.320Z,2.92
2023-04-21T16:13:57.386Z,3.33
2023-04-21T16:19:27.460Z,2.80
2023-04-21T16:24:58.696Z,3.35
2023-04-21T16:30:27.425Z,3.00
2023-04-21T16:35:55.356Z,2.90
2023-04-21T16:41:21.519Z,3.00
2023-04-21T16:46:50.437Z,2.67
2023-04-21T16:52:16.937Z,5.25
2023-04-21T17:03:10.042Z,2.70
2023-04-21T17:14:08.506Z,3.78
2023-04-21T17:19:36.974Z,2.42
2023-04-21T17:25:05.576Z,3.00
2023-04-21T17:30:35.802Z,2.88
2023-04-21T17:36:03.916Z,3.92
2023-04-21T17:41:32.431Z,4.20
2023-04-21T17:47:04.036Z,3.60
2023-04-21T17:52:33.031Z,4.85
2023-04-21T17:57:59.442Z,3.67
2023-04-21T18:03:29.564Z,3.50
2023-04-21T18:08:54.850Z,4.05
2023-04-21T18:14:19.954Z,2.80
2023-04-21T18:19:45.523Z,2.40
2023-04-21T18:25:10.088Z,2.63
2023-04-21T18:30:34.618Z,2.92
2023-04-21T18:36:01.535Z,3.05
2023-04-21T18:41:26.782Z,2.70
2023-04-21T18:46:52.259Z,3.17
2023-04-21T18:52:18.322Z,4.03
2023-04-21T18:57:43.173Z,3.00
2023-04-21T19:03:07.473Z,2.30
2023-04-21T19:08:42.129Z,2.60
2023-04-21T19:14:09.102Z,3.08
2023-04-21T19:19:33.441Z,2.80
2023-04-21T19:24:58.818Z,3.25
2023-04-21T19:30:23.957Z,4.20
2023-04-21T19:35:49.679Z,3.85
2023-04-21T19:41:15.292Z,3.00
2023-04-21T19:46:42.512Z,3.05
2023-04-21T19:52:07.204Z,3.20
2023-04-21T19:57:32.689Z,3.53
2023-04-21T20:02:57.220Z,3.40
2023-04-21T20:08:22.754Z,3.25
2023-04-21T20:13:48.316Z,3.55
2023-04-21T20:19:12.538Z,3.22
2023-04-21T20:24:37.295Z,3.40
2023-04-21T20:30:02.030Z,2.83
2023-04-21T20:35:26.415Z,2.88
2023-04-21T20:40:52.451Z,2.58
2023-04-21T20:46:17.841Z,2.58
2023-04-21T20:51:45.289Z,2.92
2023-04-21T20:57:10.309Z,2.45
2023-04-21T21:02:35.342Z,2.38
2023-04-21T21:07:59.008Z,2.25
2023-04-21T21:13:23.767Z,2.95
2023-04-21T21:18:49.125Z,2.33
2023-04-21T21:24:14.627Z,2.92
2023-04-21T21:29:38.812Z,3.47
2023-04-21T21:35:05.111Z,3.05
2023-04-21T21:40:29.129Z,2.90
2023-04-21T21:45:54.332Z,2.88
2023-04-21T21:51:21.478Z,2.40
2023-04-21T21:56:45.847Z,2.60
2023-04-21T22:02:10.725Z,2.65
2023-04-21T22:07:36.739Z,3.10
2023-04-21T22:13:03.802Z,3.38
2023-04-21T22:18:29.977Z,3.15
2023-04-21T22:23:54.948Z,3.05
2023-04-21T22:29:20.995Z,3.35
2023-04-21T22:34:45.640Z,4.10
2023-04-21T22:40:12.085Z,4.13
2023-04-21T22:45:36.902Z,4.50
2023-04-21T22:51:02.169Z,4.88
2023-04-21T22:56:29.634Z,4.18
2023-04-21T23:01:53.627Z,4.88
2023-04-21T23:07:18.701Z,4.35
2023-04-21T23:12:44.327Z,4.28
2023-04-21T23:18:08.957Z,4.18
2023-04-21T23:23:32.377Z,4.28
2023-04-21T23:28:57.793Z,4.00
2023-04-21T23:34:22.100Z,4.32
2023-04-21T23:39:47.824Z,4.07
2023-04-21T23:45:13.730Z,7.47
2023-04-21T23:50:39.247Z,3.22
2023-04-21T23:56:04.448Z,3.85
